Time;durP1;ratioP1;P1;durP2;ratioP2;P2;SDS_P1;SDS_P2;PMS_P1;PMS_P2;Temp;Humidity;BMP_temperature;BMP_pressure;BME280_temperature;BME280_humidity;BME280_pressure;Samples;Min_cycle;Max_cycle;Signal;HPM_P1;HPM_P2
2023/07/13 00:00:43;;;;;;;5.40;3.20;;;;;;;20.68;54.77;100282.23;104915;1269;59587;-59
2023/07/13 00:03:13;;;;;;;5.00;2.70;;;;;;;20.70;54.76;100281.05;104958;1268;64139;-59
2023/07/13 00:05:41;;;;;;;7.30;3.50;;;;;;;20.74;54.82;100283.73;105081;1263;61445;-58
2023/07/13 00:08:08;;;;;;;6.70;3.60;;;;;;;20.76;54.70;100282.84;104868;1264;62450;-58
2023/07/13 00:10:41;;;;;;;5.90;3.30;;;;;;;20.75;54.65;100278.84;104952;1265;60562;-59
2023/07/13 00:13:09;;;;;;;9.20;3.40;;;;;;;20.73;54.56;100278.34;104932;1267;60218;-59
2023/07/13 00:15:36;;;;;;;6.80;3.50;;;;;;;20.72;54.54;100274.86;104894;1263;63748;-60
2023/07/13 00:18:04;;;;;;;7.00;3.80;;;;;;;20.70;54.65;100268.93;104965;1266;61570;-61
2023/07/13 00:20:33;;;;;;;6.10;3.50;;;;;;;20.67;54.56;100266.63;105115;1266;64286;-58
2023/07/13 00:23:00;;;;;;;5.90;3.20;;;;;;;20.62;54.58;100266.39;105054;1261;60798;-60
2023/07/13 00:25:28;;;;;;;6.40;3.70;;;;;;;20.57;54.65;100259.68;104958;1268;60364;-60
2023/07/13 00:27:56;;;;;;;6.00;3.50;;;;;;;20.52;54.82;100253.38;104944;1267;64925;-59
2023/07/13 00:30:23;;;;;;;9.70;4.10;;;;;;;20.46;54.88;100249.91;104996;1268;61379;-60
2023/07/13 00:32:51;;;;;;;6.20;4.00;;;;;;;20.41;54.86;100240.95;105007;1264;72652;-60
2023/07/13 00:35:39;;;;;;;7.20;3.50;;;;;;;20.35;54.98;100236.53;104846;1267;61737;-60
2023/07/13 00:38:08;;;;;;;6.60;3.50;;;;;;;20.30;55.12;100232.70;105015;1266;60511;-62
2023/07/13 00:40:36;;;;;;;5.70;3.20;;;;;;;20.30;55.24;100231.83;104924;1276;64903;-62
2023/07/13 00:43:09;;;;;;;7.30;3.50;;;;;;;20.31;55.45;100236.73;105615;1267;60367;-60
2023/07/13 00:45:36;;;;;;;6.60;4.00;;;;;;;20.30;55.53;100235.16;104926;1264;62533;-60
2023/07/13 00:48:04;;;;;;;6.60;3.70;;;;;;;20.30;55.47;100233.85;104863;1263;60485;-60
2023/07/13 00:50:32;;;;;;;6.40;3.40;;;;;;;20.29;55.40;100234.00;104885;1262;60552;-60
2023/07/13 00:52:59;;;;;;;8.90;3.50;;;;;;;20.27;55.38;100229.91;104922;1262;63773;-61
2023/07/13 00:55:27;;;;;;;8.00;4.20;;;;;;;20.24;55.51;100229.52;104903;1263;61479;-60
2023/07/13 00:57:54;;;;;;;7.60;3.70;;;;;;;20.21;55.95;100227.93;104947;1268;63734;-61
2023/07/13 01:00:22;;;;;;;7.40;3.80;;;;;;;20.18;55.76;100230.58;104748;1267;60565;-60
2023/07/13 01:02:49;;;;;;;7.50;3.50;;;;;;;20.17;55.13;100231.09;104970;1267;60564;-60
2023/07/13 01:05:19;;;;;;;9.00;3.90;;;;;;;20.18;54.69;100230.64;104874;1270;64894;-59
2023/07/13 01:07:48;;;;;;;7.20;3.70;;;;;;;20.20;54.64;100232.71;104881;1264;61289;-59
2023/07/13 01:10:15;;;;;;;6.70;3.10;;;;;;;20.22;54.25;100231.05;105064;1264;63745;-59
2023/07/13 01:12:43;;;;;;;8.20;3.10;;;;;;;20.23;54.05;100227.70;104861;1263;60532;-60
2023/07/13 01:15:32;;;;;;;5.50;3.50;;;;;;;20.24;53.84;100229.92;104936;1267;60367;-63
2023/07/13 01:18:00;;;;;;;5.70;3.20;;;;;;;20.24;53.79;100227.25;104847;1263;64985;-60
2023/07/13 01:20:28;;;;;;;6.60;3.30;;;;;;;20.23;53.76;100222.52;105320;1257;61364;-61
2023/07/13 01:22:56;;;;;;;8.70;3.90;;;;;;;20.22;53.72;100221.16;105127;1263;63741;-58
2023/07/13 01:25:23;;;;;;;5.80;3.30;;;;;;;20.23;53.79;100219.65;105200;1258;60533;-58
2023/07/13 01:27:51;;;;;;;7.70;3.60;;;;;;;20.22;53.81;100222.60;105189;1262;60498;-57
2023/07/13 01:30:19;;;;;;;6.20;3.00;;;;;;;20.21;53.79;100220.38;105224;1263;64993;-60
2023/07/13 01:32:46;;;;;;;6.60;3.40;;;;;;;20.25;53.61;100217.48;105189;1258;61318;-59
2023/07/13 01:35:16;;;;;;;6.10;3.40;;;;;;;20.30;53.69;100214.94;105198;1264;63676;-58
2023/07/13 01:37:44;;;;;;;6.40;3.50;;;;;;;20.32;53.72;100212.48;105300;1257;60686;-59
2023/07/13 01:40:12;;;;;;;5.50;3.40;;;;;;;20.33;53.66;100215.05;105170;1263;60361;-58
2023/07/13 01:42:40;;;;;;;7.10;3.40;;;;;;;20.35;53.66;100215.55;105268;1262;65456;-59
2023/07/13 01:45:08;;;;;;;8.40;3.50;;;;;;;20.36;53.55;100217.92;105158;1257;61541;-58
2023/07/13 01:47:36;;;;;;;5.80;3.10;;;;;;;20.35;53.54;100219.97;105346;1258;63772;-60
2023/07/13 01:50:04;;;;;;;5.30;3.00;;;;;;;20.35;53.52;100220.38;105298;1257;60552;-58
2023/07/13 01:52:32;;;;;;;9.60;3.80;;;;;;;20.35;53.66;100222.14;105143;1257;60628;-59
2023/07/13 01:55:00;;;;;;;6.50;3.40;;;;;;;20.33;53.69;100223.06;105298;1260;73848;-59
2023/07/13 01:57:28;;;;;;;8.90;3.30;;;;;;;20.31;53.61;100223.13;105286;1258;61421;-59
2023/07/13 01:59:55;;;;;;;6.70;4.10;;;;;;;20.31;53.62;100219.96;105322;1262;63799;-57
2023/07/13 02:02:23;;;;;;;7.60;3.60;;;;;;;20.30;53.77;100220.29;105193;1263;60434;-59
2023/07/13 02:04:50;;;;;;;5.90;3.50;;;;;;;20.28;53.67;100225.33;105345;1262;60357;-59
2023/07/13 02:07:18;;;;;;;6.10;3.50;;;;;;;20.26;53.82;100226.69;105041;1263;67565;-63
2023/07/13 02:09:46;;;;;;;5.90;3.50;;;;;;;20.24;53.75;100226.48;105330;1257;61382;-59
2023/07/13 02:12:13;;;;;;;6.00;3.50;;;;;;;20.23;53.87;100223.27;105000;1263;63779;-58
2023/07/13 02:14:41;;;;;;;8.10;3.20;;;;;;;20.25;53.81;100224.51;105231;1258;60571;-59
2023/07/13 02:17:09;;;;;;;6.20;3.50;;;;;;;20.28;53.63;100223.02;105136;1263;60527;-60
2023/07/13 02:19:37;;;;;;;5.30;3.10;;;;;;;20.29;53.72;100221.46;105415;1263;65003;-61
2023/07/13 02:22:05;;;;;;;6.20;3.60;;;;;;;20.30;53.77;100217.82;105283;1263;61368;-60
2023/07/13 02:24:32;;;;;;;5.60;3.40;;;;;;;20.30;53.70;100221.10;105194;1261;63710;-60
2023/07/13 02:27:00;;;;;;;6.00;3.20;;;;;;;20.32;53.69;100221.80;105222;1263;60556;-60
2023/07/13 02:29:27;;;;;;;6.60;3.30;;;;;;;20.31;53.75;100215.73;105216;1263;60466;-58
2023/07/13 02:31:55;;;;;;;5.90;3.50;;;;;;;20.31;53.66;100214.94;105245;1262;64886;-60
2023/07/13 02:34:23;;;;;;;7.10;3.60;;;;;;;20.31;53.65;100215.29;105284;1258;61322;-59
2023/07/13 02:36:51;;;;;;;6.00;3.30;;;;;;;20.31;53.61;100212.10;105112;1263;63727;-61
2023/07/13 02:39:18;;;;;;;7.80;3.30;;;;;;;20.31;53.56;100214.80;105282;1258;60658;-60
2023/07/13 02:41:46;;;;;;;5.70;3.10;;;;;;;20.31;53.54;100210.14;105234;1263;60454;-57
2023/07/13 02:44:14;;;;;;;7.30;3.80;;;;;;;20.30;53.51;100210.42;105215;1263;64942;-59
2023/07/13 02:46:42;;;;;;;5.70;3.70;;;;;;;20.29;53.72;100210.74;105291;1257;63115;-56
2023/07/13 02:49:09;;;;;;;7.90;3.60;;;;;;;20.29;53.72;100207.98;105262;1261;63782;-59
2023/07/13 02:51:37;;;;;;;7.00;3.90;;;;;;;20.28;53.71;100210.97;105501;1254;60587;-59
2023/07/13 02:54:04;;;;;;;6.10;3.40;;;;;;;20.27;53.64;100212.64;105276;1254;60938;-60
2023/07/13 02:56:33;;;;;;;6.90;3.40;;;;;;;20.31;53.74;100213.79;105391;1260;64927;-60
2023/07/13 02:59:00;;;;;;;5.90;3.30;;;;;;;20.37;53.68;100214.09;105300;1254;61383;-61
2023/07/13 03:01:28;;;;;;;6.10;3.90;;;;;;;20.41;53.69;100216.20;105397;1254;62481;-59
2023/07/13 03:03:56;;;;;;;6.70;3.10;;;;;;;20.44;53.63;100220.86;105700;1254;60453;-59
2023/07/13 03:06:24;;;;;;;6.30;3.70;;;;;;;20.47;53.58;100222.95;105463;1259;60798;-59
2023/07/13 03:08:53;;;;;;;7.10;3.80;;;;;;;20.51;53.51;100217.76;105394;1255;65108;-59
2023/07/13 03:11:21;;;;;;;5.90;3.30;;;;;;;20.55;53.26;100215.30;105563;1254;61330;-61
2023/07/13 03:13:54;;;;;;;7.50;4.20;;;;;;;20.58;53.11;100218.86;105314;1256;64269;-59
2023/07/13 03:16:22;;;;;;;6.80;3.90;;;;;;;20.60;53.07;100227.73;105490;1254;61885;-59
2023/07/13 03:18:51;;;;;;;10.40;3.50;;;;;;;20.63;53.08;100220.35;105231;1254;60543;-58
2023/07/13 03:21:19;;;;;;;6.00;3.90;;;;;;;20.67;53.16;100221.99;105604;1259;64953;-60
2023/07/13 03:23:46;;;;;;;6.20;3.40;;;;;;;20.69;53.02;100221.08;105313;1260;60423;-60
2023/07/13 03:26:17;;;;;;;7.00;3.90;;;;;;;20.72;52.90;100223.16;105493;1254;63754;-58
2023/07/13 03:28:44;;;;;;;7.40;3.80;;;;;;;20.77;52.88;100222.46;105393;1254;60699;-58
2023/07/13 03:31:18;;;;;;;5.70;3.40;;;;;;;20.83;52.77;100221.39;105431;1254;60495;-58
2023/07/13 03:33:46;;;;;;;7.70;3.90;;;;;;;20.89;52.75;100222.95;105608;1257;65023;-58
2023/07/13 03:36:20;;;;;;;9.00;3.60;;;;;;;20.94;52.56;100223.31;105580;1255;62435;-58
2023/07/13 03:38:51;;;;;;;6.20;3.70;;;;;;;21.01;52.35;100222.09;105473;1257;62439;-58
2023/07/13 03:41:22;;;;;;;7.90;4.10;;;;;;;21.08;52.22;100218.77;105551;1257;61049;-57
2023/07/13 03:43:50;;;;;;;5.90;4.00;;;;;;;21.14;52.09;100211.93;105676;1254;60392;-62
2023/07/13 03:46:18;;;;;;;7.80;3.80;;;;;;;21.19;51.90;100204.68;105473;1254;64960;-60
2023/07/13 03:48:46;;;;;;;7.00;4.30;;;;;;;21.23;51.63;100204.13;105497;1259;61727;-57
2023/07/13 03:51:15;;;;;;;10.20;4.00;;;;;;;21.28;51.60;100201.35;105551;1260;63710;-59
2023/07/13 03:53:43;;;;;;;8.40;3.90;;;;;;;21.33;51.30;100207.61;105532;1254;60904;-59
2023/07/13 03:56:14;;;;;;;7.20;3.40;;;;;;;21.38;51.23;100209.67;105420;1260;60540;-56
2023/07/13 03:58:42;;;;;;;7.10;4.10;;;;;;;21.42;51.19;100209.34;105509;1254;63704;-60
2023/07/13 04:01:19;;;;;;;6.90;3.90;;;;;;;21.47;50.99;100205.51;105368;1254;61361;-58
2023/07/13 04:03:47;;;;;;;6.40;3.70;;;;;;;21.52;50.75;100208.13;105421;1257;62482;-58
2023/07/13 04:06:20;;;;;;;8.30;4.10;;;;;;;21.56;50.60;100214.76;105447;1259;59650;-59
2023/07/13 04:08:50;;;;;;;6.00;3.80;;;;;;;21.60;50.54;100218.30;105563;1254;60481;-58
2023/07/13 04:11:18;;;;;;;5.80;3.30;;;;;;;21.66;50.54;100217.05;105576;1254;63630;-63
2023/07/13 04:13:46;;;;;;;7.50;3.80;;;;;;;21.70;50.53;100209.28;105359;1254;70016;-59
2023/07/13 04:16:14;;;;;;;6.20;3.50;;;;;;;21.78;50.41;100213.30;105449;1260;72406;-61
2023/07/13 04:18:42;;;;;;;6.70;4.00;;;;;;;21.85;50.32;100212.79;105679;1254;61751;-59
2023/07/13 04:21:10;;;;;;;6.00;4.00;;;;;;;21.93;50.34;100212.82;105409;1254;60513;-60
2023/07/13 04:23:37;;;;;;;8.00;3.70;;;;;;;22.03;50.17;100213.67;105514;1259;65083;-59
2023/07/13 04:26:06;;;;;;;6.20;3.80;;;;;;;22.11;49.64;100214.06;105500;1259;60560;-60
2023/07/13 04:28:34;;;;;;;6.00;3.70;;;;;;;22.19;49.48;100212.14;105316;1257;63685;-56
2023/07/13 04:31:01;;;;;;;5.40;3.10;;;;;;;22.25;49.02;100208.77;105502;1254;60470;-61
2023/07/13 04:33:29;;;;;;;5.50;3.50;;;;;;;22.32;48.90;100206.50;105501;1254;60599;-60
2023/07/13 04:35:57;;;;;;;6.60;3.90;;;;;;;22.39;48.74;100211.95;105437;1254;65558;-59
2023/07/13 04:38:27;;;;;;;6.30;3.70;;;;;;;22.44;48.74;100208.95;105429;1254;61386;-59
2023/07/13 04:41:00;;;;;;;6.10;3.90;;;;;;;22.49;48.29;100207.02;105571;1259;62526;-59
2023/07/13 04:43:27;;;;;;;6.00;3.40;;;;;;;22.54;48.15;100212.47;105411;1254;60486;-62
2023/07/13 04:45:55;;;;;;;6.40;3.90;;;;;;;22.58;47.92;100221.92;105615;1254;60553;-60
2023/07/13 04:48:23;;;;;;;7.80;4.10;;;;;;;22.62;47.74;100220.71;105639;1260;64954;-63
2023/07/13 04:50:55;;;;;;;8.00;3.90;;;;;;;22.67;47.73;100226.86;105643;1259;61891;-60
2023/07/13 04:53:22;;;;;;;6.60;3.70;;;;;;;22.72;47.56;100229.21;105517;1259;62493;-60
2023/07/13 04:55:50;;;;;;;6.50;3.80;;;;;;;22.76;47.43;100224.39;105503;1259;60943;-60
2023/07/13 04:58:18;;;;;;;6.70;4.00;;;;;;;22.80;47.33;100221.28;105516;1254;60549;-61
2023/07/13 05:00:45;;;;;;;8.90;4.00;;;;;;;22.84;47.40;100225.45;105412;1254;63888;-57
2023/07/13 05:03:13;;;;;;;5.30;3.10;;;;;;;22.88;47.51;100227.55;105542;1254;64538;-58
2023/07/13 05:05:40;;;;;;;6.10;3.50;;;;;;;22.95;47.42;100234.80;105666;1259;62476;-58
2023/07/13 05:08:08;;;;;;;6.60;4.00;;;;;;;23.03;47.61;100234.10;105397;1254;60630;-58
2023/07/13 05:10:35;;;;;;;6.00;3.60;;;;;;;23.13;47.42;100236.73;105445;1252;60533;-59
2023/07/13 05:13:03;;;;;;;7.90;3.60;;;;;;;23.23;47.27;100236.34;105386;1254;64884;-58
2023/07/13 05:15:30;;;;;;;6.70;3.70;;;;;;;23.32;47.01;100238.80;105502;1254;61902;-58
2023/07/13 05:17:58;;;;;;;5.70;3.40;;;;;;;23.41;46.80;100231.86;105358;1254;63665;-60
2023/07/13 05:20:25;;;;;;;5.10;3.40;;;;;;;23.49;46.63;100225.41;105538;1254;60911;-58
2023/07/13 05:22:53;;;;;;;6.30;4.00;;;;;;;23.56;46.45;100229.63;105314;1254;60418;-59
2023/07/13 05:25:21;;;;;;;6.50;3.40;;;;;;;23.64;46.38;100234.10;105469;1254;63648;-55
2023/07/13 05:27:49;;;;;;;7.30;3.90;;;;;;;23.71;46.43;100235.81;105443;1259;60462;-56
2023/07/13 05:30:16;;;;;;;6.20;3.70;;;;;;;23.77;46.38;100236.88;105365;1255;63718;-53
2023/07/13 05:32:43;;;;;;;5.90;3.80;;;;;;;23.83;46.16;100228.17;105450;1259;60407;-61
2023/07/13 05:35:11;;;;;;;10.00;3.20;;;;;;;23.89;45.73;100221.95;105438;1259;60353;-56
2023/07/13 05:37:39;;;;;;;7.40;4.00;;;;;;;23.96;45.56;100220.77;105443;1260;64865;-55
2023/07/13 05:40:07;;;;;;;6.10;3.50;;;;;;;24.03;45.34;100225.30;105420;1254;61450;-52
2023/07/13 05:42:35;;;;;;;8.60;3.60;;;;;;;24.08;44.93;100226.53;105563;1260;63684;-59
2023/07/13 05:45:03;;;;;;;6.00;3.70;;;;;;;24.11;44.83;100228.58;105336;1252;60460;-60
2023/07/13 05:47:30;;;;;;;6.90;3.90;;;;;;;24.14;44.77;100229.60;105447;1253;60514;-58
2023/07/13 05:49:58;;;;;;;7.40;3.80;;;;;;;24.18;44.67;100233.83;105325;1254;64854;-60
2023/07/13 05:52:26;;;;;;;7.10;3.60;;;;;;;24.20;44.57;100230.63;105392;1254;60478;-63
2023/07/13 05:54:53;;;;;;;7.20;3.70;;;;;;;24.22;44.76;100236.54;105484;1254;63749;-66
2023/07/13 05:57:21;;;;;;;5.60;3.70;;;;;;;24.27;44.91;100234.65;105574;1254;60407;-61
2023/07/13 05:59:49;;;;;;;7.60;4.10;;;;;;;24.32;45.12;100231.30;105404;1254;60450;-59
2023/07/13 06:02:16;;;;;;;6.70;3.80;;;;;;;24.36;45.15;100234.95;105359;1259;64958;-62
2023/07/13 06:04:43;;;;;;;7.40;3.60;;;;;;;24.42;45.05;100239.38;105376;1254;61406;-61
2023/07/13 06:07:11;;;;;;;6.30;3.80;;;;;;;24.42;44.90;100235.15;105499;1254;63768;-65
2023/07/13 06:09:39;;;;;;;6.00;3.60;;;;;;;24.42;44.80;100235.54;105453;1254;60455;-60
2023/07/13 06:12:07;;;;;;;6.00;3.60;;;;;;;24.42;44.89;100232.67;105434;1260;60520;-67
2023/07/13 06:14:35;;;;;;;6.40;3.60;;;;;;;24.41;44.77;100231.95;105606;1254;67653;-61
2023/07/13 06:17:02;;;;;;;6.30;3.70;;;;;;;24.39;45.00;100230.14;105616;1254;61461;-66
2023/07/13 06:19:30;;;;;;;6.80;4.20;;;;;;;24.38;45.13;100226.29;105465;1254;64326;-61
2023/07/13 06:21:58;;;;;;;7.30;4.20;;;;;;;24.46;45.38;100219.20;105361;1260;60444;-59
2023/07/13 06:24:26;;;;;;;6.40;4.00;;;;;;;24.51;45.15;100219.38;105498;1254;60581;-62
2023/07/13 06:26:53;;;;;;;7.00;4.00;;;;;;;24.67;45.22;100218.11;105384;1254;64931;-65
2023/07/13 06:29:21;;;;;;;8.20;4.20;;;;;;;24.74;45.28;100224.02;105497;1254;61351;-62
2023/07/13 06:31:48;;;;;;;7.70;4.20;;;;;;;24.94;45.07;100225.00;105446;1254;63733;-70
2023/07/13 06:34:15;;;;;;;6.50;3.90;;;;;;;25.09;44.46;100226.92;105441;1254;60455;-63
2023/07/13 06:37:15;;;;;;;6.50;4.10;;;;;;;25.18;44.66;100223.73;105364;1259;60773;-61
2023/07/13 06:39:46;;;;;;;8.20;4.60;;;;;;;25.16;44.74;100224.65;104757;1265;63664;-61
2023/07/13 06:42:13;;;;;;;8.70;4.30;;;;;;;25.13;44.58;100227.10;104949;1254;61293;-60
2023/07/13 06:44:41;;;;;;;9.20;4.40;;;;;;;25.14;43.81;100224.43;105432;1254;62448;-61
2023/07/13 06:47:09;;;;;;;6.90;3.30;;;;;;;25.16;43.94;100220.59;105408;1254;60648;-60
2023/07/13 06:49:36;;;;;;;7.20;4.60;;;;;;;25.19;44.20;100225.66;105473;1254;60555;-61
2023/07/13 06:52:04;;;;;;;6.50;4.00;;;;;;;25.23;44.24;100220.37;105558;1259;64931;-57
2023/07/13 06:54:32;;;;;;;9.10;4.80;;;;;;;25.30;44.48;100223.38;105752;1258;60404;-57
2023/07/13 06:56:59;;;;;;;7.50;4.80;;;;;;;25.40;44.75;100228.52;105500;1255;62408;-58
2023/07/13 06:59:27;;;;;;;6.40;4.60;;;;;;;25.56;44.48;100222.13;105469;1254;60449;-55
2023/07/13 07:01:54;;;;;;;7.10;4.10;;;;;;;25.71;43.51;100224.81;105432;1254;62133;-58
2023/07/13 07:04:25;;;;;;;6.40;4.20;;;;;;;25.82;43.69;100226.20;105439;1259;65446;-60
2023/07/13 07:06:52;;;;;;;6.70;3.80;;;;;;;25.96;43.81;100227.41;105317;1254;60450;-59
2023/07/13 07:09:22;;;;;;;5.60;3.60;;;;;;;26.11;43.24;100233.31;105328;1254;63823;-58
2023/07/13 07:11:50;;;;;;;8.00;5.00;;;;;;;26.20;42.81;100234.41;105433;1254;60536;-57
2023/07/13 07:14:31;;;;;;;7.30;4.00;;;;;;;26.27;42.88;100231.00;105509;1254;61609;-59
2023/07/13 07:16:58;;;;;;;9.80;3.90;;;;;;;26.34;42.70;100228.84;105606;1259;64953;-58
2023/07/13 07:19:29;;;;;;;5.60;4.00;;;;;;;26.37;42.33;100224.65;105475;1254;61383;-63
2023/07/13 07:21:57;;;;;;;5.90;4.00;;;;;;;26.38;42.32;100225.27;105340;1259;63646;-57
2023/07/13 07:24:24;;;;;;;8.10;3.90;;;;;;;26.40;42.63;100218.27;105456;1254;60419;-57
2023/07/13 07:26:52;;;;;;;8.10;4.10;;;;;;;26.45;42.83;100221.88;105465;1258;60417;-60
2023/07/13 07:29:25;;;;;;;6.20;3.90;;;;;;;26.50;42.77;100221.48;105569;1254;63984;-58
2023/07/13 07:32:04;;;;;;;5.50;3.50;;;;;;;26.54;42.64;100219.58;105415;1254;61471;-58
2023/07/13 07:34:54;;;;;;;6.20;3.80;;;;;;;26.58;42.24;100216.27;105137;1255;62496;-57
2023/07/13 07:37:22;;;;;;;8.00;4.60;;;;;;;26.61;41.93;100215.70;105475;1254;60467;-57
2023/07/13 07:40:13;;;;;;;7.40;4.10;;;;;;;26.61;41.60;100218.48;105030;1254;60549;-58
2023/07/13 07:42:49;;;;;;;6.90;4.20;;;;;;;26.59;41.80;100219.64;105240;1262;64889;-57
2023/07/13 07:45:16;;;;;;;5.90;4.10;;;;;;;26.62;42.31;100219.61;105473;1254;61353;-59
2023/07/13 07:47:44;;;;;;;8.10;3.80;;;;;;;26.68;42.57;100220.64;105360;1254;63618;-57
2023/07/13 07:50:12;;;;;;;7.50;4.10;;;;;;;26.74;42.39;100225.80;105427;1254;60474;-59
2023/07/13 07:52:40;;;;;;;10.70;4.40;;;;;;;26.81;42.34;100234.77;105404;1257;60373;-58
2023/07/13 07:55:07;;;;;;;7.20;4.20;;;;;;;26.89;42.39;100234.35;105434;1254;64917;-57
2023/07/13 07:57:38;;;;;;;6.40;3.70;;;;;;;26.96;42.47;100235.10;105478;1258;61310;-60
2023/07/13 08:00:09;;;;;;;6.40;4.30;;;;;;;27.01;42.34;100234.58;105442;1254;63746;-58
2023/07/13 08:02:43;;;;;;;7.50;4.10;;;;;;;27.03;42.52;100236.40;105152;1254;375757;-59
2023/07/13 08:06:33;;;;;;;;;;;;;;;26.87;43.20;100232.63;102834;1286;601089;-59
2023/07/13 08:09:04;;;;;;;8.30;4.20;;;;;;;27.10;42.78;100228.63;104609;1267;59367;-58
2023/07/13 08:12:19;;;;;;;8.20;4.40;;;;;;;27.17;42.47;100226.41;104855;1264;59372;-61
2023/07/13 08:15:17;;;;;;;6.60;3.80;;;;;;;27.27;42.48;100224.41;104555;1264;63776;-60
2023/07/13 08:17:45;;;;;;;7.00;4.30;;;;;;;27.37;42.51;100219.61;103984;1274;60411;-57
2023/07/13 08:20:13;;;;;;;6.80;4.40;;;;;;;27.48;42.70;100221.90;100180;1266;6356467;-56
2023/07/13 08:22:41;;;;;;;9.30;3.90;;;;;;;27.58;41.57;100223.19;104635;1263;59253;-57
2023/07/13 08:26:01;;;;;;;5.50;3.50;;;;;;;27.70;41.76;100223.31;104797;1264;62459;-60
2023/07/13 08:28:29;;;;;;;9.30;4.20;;;;;;;27.83;41.34;100220.21;104950;1263;61391;-57
2023/07/13 08:31:03;;;;;;;7.10;4.00;;;;;;;27.97;40.96;100220.71;104889;1266;62468;-59
2023/07/13 08:33:31;;;;;;;5.50;3.50;;;;;;;28.12;41.05;100220.56;104985;1263;59759;-60
2023/07/13 08:35:59;;;;;;;6.40;4.10;;;;;;;28.27;40.69;100219.58;104878;1267;59683;-61
2023/07/13 08:38:26;;;;;;;6.10;4.40;;;;;;;28.40;40.63;100221.79;104982;1263;64639;-62
2023/07/13 08:40:55;;;;;;;8.80;4.20;;;;;;;28.50;39.64;100217.35;104953;1263;61344;-70
2023/07/13 08:43:28;;;;;;;10.20;4.10;;;;;;;28.57;39.72;100215.82;105047;1267;63835;-60
2023/07/13 08:46:05;;;;;;;6.50;4.20;;;;;;;28.67;39.86;100214.24;105051;1264;59737;-61
2023/07/13 08:48:57;;;;;;;5.50;3.70;;;;;;;28.76;39.68;100212.92;105090;1262;59695;-62
2023/07/13 08:51:43;;;;;;;6.80;4.40;;;;;;;28.82;39.17;100208.89;104827;1264;64174;-55
2023/07/13 08:54:21;;;;;;;8.60;3.70;;;;;;;28.84;39.11;100205.20;104771;1268;60254;-57
2023/07/13 08:56:49;;;;;;;7.20;3.90;;;;;;;28.88;39.10;100201.19;104963;1263;62489;-56
2023/07/13 08:59:18;;;;;;;7.10;4.50;;;;;;;28.94;38.99;100204.68;104807;1267;59745;-57
2023/07/13 09:02:11;;;;;;;6.50;3.80;;;;;;;28.99;38.24;100205.58;104721;1263;59771;-57
2023/07/13 09:04:48;;;;;;;7.00;3.50;;;;;;;29.05;38.33;100203.21;104925;1264;64641;-55
2023/07/13 09:07:31;;;;;;;7.70;3.90;;;;;;;29.13;38.09;100201.00;104715;1267;60105;-59
2023/07/13 09:10:05;;;;;;;6.10;4.40;;;;;;;29.23;38.49;100198.00;104369;1264;63768;-56
2023/07/13 09:13:12;;;;;;;7.60;4.00;;;;;;;29.34;37.94;100200.90;104959;1264;59676;-53
2023/07/13 09:15:44;;;;;;;6.50;3.90;;;;;;;29.40;38.11;100196.60;104960;1263;60810;-57
2023/07/13 09:18:32;;;;;;;6.30;4.10;;;;;;;29.45;37.32;100202.52;104747;1264;64159;-56
2023/07/13 09:21:03;;;;;;;8.10;4.00;;;;;;;29.48;36.54;100202.80;104450;1263;61400;-56
2023/07/13 09:23:31;;;;;;;7.70;4.00;;;;;;;29.47;35.58;100199.27;104694;1270;62510;-54
2023/07/13 09:26:09;;;;;;;7.30;3.80;;;;;;;29.46;35.70;100195.95;104683;1267;59626;-56
2023/07/13 09:28:45;;;;;;;6.70;3.90;;;;;;;29.48;35.65;100194.95;104670;1263;59868;-56
2023/07/13 09:31:18;;;;;;;7.40;3.80;;;;;;;29.47;35.46;100194.72;108599;1263;65009;-57
2023/07/13 09:33:46;;;;;;;9.00;4.20;;;;;;;29.46;35.50;100191.90;108599;1264;63774;-58
2023/07/13 09:36:17;;;;;;;6.70;3.90;;;;;;;29.45;35.82;100190.11;108586;1264;63797;-56
2023/07/13 09:38:46;;;;;;;6.30;3.50;;;;;;;29.46;36.11;100185.17;108564;1263;57824;-58
2023/07/13 09:41:23;;;;;;;6.30;4.00;;;;;;;29.46;36.30;100189.84;108961;1256;57360;-58
2023/07/13 09:44:13;;;;;;;6.50;4.10;;;;;;;29.49;36.26;100192.52;109109;1254;64616;-58
2023/07/13 09:46:52;;;;;;;10.70;3.90;;;;;;;29.51;36.86;100188.81;105232;1257;61517;-58
2023/07/13 09:49:33;;;;;;;6.00;3.30;;;;;;;29.52;36.60;100192.68;109281;1254;64317;-58
2023/07/13 09:52:06;;;;;;;6.20;3.90;;;;;;;29.52;36.64;100191.55;109141;1254;57477;-60
2023/07/13 09:54:34;;;;;;;7.20;3.90;;;;;;;29.54;36.46;100190.02;107486;1254;59773;-58
2023/07/13 09:57:04;;;;;;;6.30;4.00;;;;;;;29.57;36.34;100187.63;105837;1257;64282;-58
2023/07/13 09:59:46;;;;;;;8.00;3.80;;;;;;;29.58;36.47;100187.80;105340;1257;60279;-58
2023/07/13 10:02:32;;;;;;;6.90;4.20;;;;;;;29.60;36.94;100182.83;105879;1257;62453;-59
2023/07/13 10:05:11;;;;;;;6.80;4.30;;;;;;;29.67;37.40;100177.16;105350;1255;60133;-58
2023/07/13 10:07:43;;;;;;;7.20;3.70;;;;;;;29.79;37.74;100169.07;105351;1257;59798;-59
2023/07/13 10:10:19;;;;;;;6.20;4.20;;;;;;;29.93;37.28;100168.11;105389;1255;64159;-57
2023/07/13 10:12:47;;;;;;;6.80;4.50;;;;;;;29.99;37.24;100166.77;105279;1256;60088;-59
2023/07/13 10:15:20;;;;;;;6.20;4.60;;;;;;;30.03;37.12;100162.78;105300;1259;63719;-59
2023/07/13 10:17:52;;;;;;;6.80;4.20;;;;;;;30.06;37.59;100158.80;105366;1259;59769;-58
2023/07/13 10:20:20;;;;;;;6.90;4.40;;;;;;;30.12;37.84;100150.11;105325;1259;59555;-59
2023/07/13 10:22:52;;;;;;;8.60;4.40;;;;;;;30.19;38.19;100147.45;105321;1257;64176;-60
2023/07/13 10:25:22;;;;;;;6.70;4.10;;;;;;;30.28;38.27;100141.55;105422;1261;60108;-56
2023/07/13 10:27:51;;;;;;;8.60;4.70;;;;;;;30.36;38.36;100139.26;105284;1257;63715;-55
2023/07/13 10:30:22;;;;;;;7.20;5.00;;;;;;;30.47;38.09;100136.73;105374;1256;60965;-56
2023/07/13 10:32:50;;;;;;;6.20;4.70;;;;;;;30.57;37.74;100132.35;105471;1256;59692;-53
2023/07/13 10:35:20;;;;;;;8.60;4.90;;;;;;;30.66;37.55;100128.92;105332;1256;62819;-52
2023/07/13 10:37:57;;;;;;;6.30;4.10;;;;;;;30.76;37.83;100119.80;105411;1256;61379;-62
2023/07/13 10:41:03;;;;;;;6.60;4.40;;;;;;;30.85;37.35;100110.67;105766;1257;63669;-64
2023/07/13 10:43:44;;;;;;;7.80;4.80;;;;;;;30.95;36.94;100106.55;105345;1256;59743;-64
2023/07/13 10:46:14;;;;;;;10.10;5.20;;;;;;;31.00;37.24;100104.03;105474;1259;59637;-63
2023/07/13 10:48:43;;;;;;;6.10;4.40;;;;;;;31.04;36.67;100102.25;105330;1255;62888;-64
2023/07/13 10:51:13;;;;;;;7.00;4.90;;;;;;;31.08;36.86;100097.65;105387;1260;60232;-59
2023/07/13 10:53:40;;;;;;;7.10;4.60;;;;;;;31.15;36.06;100095.34;105206;1257;63875;-55
2023/07/13 10:56:14;;;;;;;7.70;4.70;;;;;;;31.21;35.66;100089.05;105351;1254;59673;-57
2023/07/13 10:58:42;;;;;;;7.00;5.10;;;;;;;31.26;36.16;100088.14;105436;1256;59791;-54
2023/07/13 11:01:16;;;;;;;6.60;4.50;;;;;;;31.33;36.22;100083.47;105277;1257;62927;-53
2023/07/13 11:03:59;;;;;;;7.90;4.80;;;;;;;31.44;35.80;100081.71;105410;1256;62620;-56
2023/07/13 11:06:38;;;;;;;6.40;4.70;;;;;;;31.53;35.54;100079.63;105499;1260;62517;-59
2023/07/13 11:09:30;;;;;;;10.50;4.80;;;;;;;31.58;35.57;100081.43;105452;1254;59700;-58
2023/07/13 11:12:00;;;;;;;8.30;4.70;;;;;;;31.60;35.46;100081.59;105333;1260;59688;-58
2023/07/13 11:14:41;;;;;;;8.30;5.20;;;;;;;31.61;35.41;100077.73;105377;1260;64717;-56
2023/07/13 11:17:51;;;;;;;7.40;4.90;;;;;;;31.58;35.41;100070.51;105128;1254;61496;-57
2023/07/13 11:20:21;;;;;;;8.50;4.90;;;;;;;31.60;35.77;100062.52;104964;1263;63787;-56
2023/07/13 11:23:08;;;;;;;10.00;5.20;;;;;;;31.69;35.82;100060.19;105343;1257;59698;-58
2023/07/13 11:25:37;;;;;;;6.50;5.00;;;;;;;31.79;35.05;100064.30;105765;1254;59703;-57
2023/07/13 11:28:09;;;;;;;8.40;5.00;;;;;;;31.83;34.67;100063.11;105584;1254;62921;-57
2023/07/13 11:30:47;;;;;;;7.10;4.70;;;;;;;31.86;34.90;100059.96;105524;1253;61304;-58
2023/07/13 11:33:21;;;;;;;7.20;5.20;;;;;;;31.93;35.25;100059.14;105364;1259;63721;-57
2023/07/13 11:35:51;;;;;;;6.90;5.10;;;;;;;31.99;35.08;100060.50;105488;1254;59737;-59